sensor_id;sensor_type;location;lat;lon;timestamp;P1;durP1;ratioP1;P2;durP2;ratioP2
30233;SDS011;17046;52.074;4.748;2023-01-19T00:01:20;6.70;;;1.10;;
30233;SDS011;17046;52.074;4.748;2023-01-19T00:03:46;4.00;;;1.20;;
30233;SDS011;17046;52.074;4.748;2023-01-19T00:06:12;6.87;;;1.40;;
30233;SDS011;17046;52.074;4.748;2023-01-19T00:08:37;2.63;;;0.73;;
30233;SDS011;17046;52.074;4.748;2023-01-19T00:11:03;4.03;;;0.80;;
30233;SDS011;17046;52.074;4.748;2023-01-19T00:13:29;4.77;;;1.30;;
30233;SDS011;17046;52.074;4.748;2023-01-19T00:15:55;4.33;;;0.93;;
30233;SDS011;17046;52.074;4.748;2023-01-19T00:18:20;5.83;;;0.97;;
30233;SDS011;17046;52.074;4.748;2023-01-19T00:20:46;7.93;;;1.00;;
30233;SDS011;17046;52.074;4.748;2023-01-19T00:23:13;6.93;;;1.20;;
30233;SDS011;17046;52.074;4.748;2023-01-19T00:25:39;3.47;;;0.87;;
30233;SDS011;17046;52.074;4.748;2023-01-19T00:28:11;1.67;;;0.50;;
30233;SDS011;17046;52.074;4.748;2023-01-19T00:30:38;2.80;;;0.60;;
30233;SDS011;17046;52.074;4.748;2023-01-19T00:33:05;4.83;;;0.97;;
30233;SDS011;17046;52.074;4.748;2023-01-19T00:35:30;3.03;;;0.70;;
30233;SDS011;17046;52.074;4.748;2023-01-19T00:37:56;4.80;;;0.70;;
30233;SDS011;17046;52.074;4.748;2023-01-19T00:40:22;5.33;;;0.83;;
30233;SDS011;17046;52.074;4.748;2023-01-19T00:42:48;7.43;;;0.93;;
30233;SDS011;17046;52.074;4.748;2023-01-19T00:45:15;5.93;;;0.93;;
30233;SDS011;17046;52.074;4.748;2023-01-19T00:47:45;6.30;;;0.80;;
30233;SDS011;17046;52.074;4.748;2023-01-19T00:50:12;4.53;;;0.70;;
30233;SDS011;17046;52.074;4.748;2023-01-19T00:52:41;3.57;;;0.70;;
30233;SDS011;17046;52.074;4.748;2023-01-19T00:55:08;4.33;;;0.93;;
30233;SDS011;17046;52.074;4.748;2023-01-19T00:57:36;5.47;;;0.87;;
30233;SDS011;17046;52.074;4.748;2023-01-19T01:00:03;5.87;;;1.00;;
30233;SDS011;17046;52.074;4.748;2023-01-19T01:02:33;4.73;;;0.90;;
30233;SDS011;17046;52.074;4.748;2023-01-19T01:04:59;9.83;;;1.00;;
30233;SDS011;17046;52.074;4.748;2023-01-19T01:07:27;10.00;;;1.10;;
30233;SDS011;17046;52.074;4.748;2023-01-19T01:09:53;6.63;;;0.90;;
30233;SDS011;17046;52.074;4.748;2023-01-19T01:12:20;8.20;;;1.03;;
30233;SDS011;17046;52.074;4.748;2023-01-19T01:14:46;3.17;;;0.70;;
30233;SDS011;17046;52.074;4.748;2023-01-19T01:17:12;5.10;;;0.60;;
30233;SDS011;17046;52.074;4.748;2023-01-19T01:19:38;5.90;;;0.77;;
30233;SDS011;17046;52.074;4.748;2023-01-19T01:22:04;6.07;;;0.80;;
30233;SDS011;17046;52.074;4.748;2023-01-19T01:24:29;4.27;;;0.73;;
30233;SDS011;17046;52.074;4.748;2023-01-19T01:26:55;5.43;;;0.60;;
30233;SDS011;17046;52.074;4.748;2023-01-19T01:29:20;2.13;;;0.33;;
30233;SDS011;17046;52.074;4.748;2023-01-19T01:31:46;5.70;;;1.10;;
30233;SDS011;17046;52.074;4.748;2023-01-19T01:34:11;7.20;;;0.90;;
30233;SDS011;17046;52.074;4.748;2023-01-19T01:36:37;10.00;;;1.07;;
30233;SDS011;17046;52.074;4.748;2023-01-19T01:39:03;3.70;;;0.57;;
30233;SDS011;17046;52.074;4.748;2023-01-19T01:41:29;2.73;;;0.57;;
30233;SDS011;17046;52.074;4.748;2023-01-19T01:43:55;5.90;;;0.73;;
30233;SDS011;17046;52.074;4.748;2023-01-19T01:46:26;5.57;;;1.00;;
30233;SDS011;17046;52.074;4.748;2023-01-19T01:49:13;7.27;;;0.90;;
30233;SDS011;17046;52.074;4.748;2023-01-19T01:51:45;6.00;;;0.60;;
30233;SDS011;17046;52.074;4.748;2023-01-19T01:54:29;4.00;;;0.60;;
30233;SDS011;17046;52.074;4.748;2023-01-19T01:56:58;3.07;;;0.63;;
30233;SDS011;17046;52.074;4.748;2023-01-19T01:59:28;3.90;;;0.47;;
30233;SDS011;17046;52.074;4.748;2023-01-19T02:02:06;4.40;;;0.60;;
30233;SDS011;17046;52.074;4.748;2023-01-19T02:04:55;4.87;;;0.50;;
30233;SDS011;17046;52.074;4.748;2023-01-19T02:07:32;1.67;;;0.70;;
30233;SDS011;17046;52.074;4.748;2023-01-19T02:10:24;4.33;;;0.53;;
30233;SDS011;17046;52.074;4.748;2023-01-19T02:13:09;5.10;;;0.90;;
30233;SDS011;17046;52.074;4.748;2023-01-19T02:15:57;11.80;;;1.33;;
30233;SDS011;17046;52.074;4.748;2023-01-19T02:18:28;6.57;;;1.30;;
30233;SDS011;17046;52.074;4.748;2023-01-19T02:21:00;4.23;;;0.67;;
30233;SDS011;17046;52.074;4.748;2023-01-19T02:23:37;6.47;;;0.80;;
30233;SDS011;17046;52.074;4.748;2023-01-19T02:26:11;4.80;;;1.00;;
30233;SDS011;17046;52.074;4.748;2023-01-19T02:28:41;5.13;;;0.90;;
30233;SDS011;17046;52.074;4.748;2023-01-19T02:31:10;4.10;;;0.70;;
30233;SDS011;17046;52.074;4.748;2023-01-19T02:33:36;7.63;;;0.90;;
30233;SDS011;17046;52.074;4.748;2023-01-19T02:36:02;4.37;;;0.83;;
30233;SDS011;17046;52.074;4.748;2023-01-19T02:38:29;4.17;;;1.00;;
30233;SDS011;17046;52.074;4.748;2023-01-19T02:40:56;6.20;;;0.80;;
30233;SDS011;17046;52.074;4.748;2023-01-19T02:43:25;6.87;;;1.20;;
30233;SDS011;17046;52.074;4.748;2023-01-19T02:45:51;9.43;;;1.20;;
30233;SDS011;17046;52.074;4.748;2023-01-19T02:48:17;6.27;;;0.80;;
30233;SDS011;17046;52.074;4.748;2023-01-19T02:50:45;7.30;;;0.77;;
30233;SDS011;17046;52.074;4.748;2023-01-19T02:55:46;3.73;;;0.70;;
30233;SDS011;17046;52.074;4.748;2023-01-19T02:58:22;2.87;;;0.50;;
30233;SDS011;17046;52.074;4.748;2023-01-19T03:01:04;4.63;;;0.80;;
30233;SDS011;17046;52.074;4.748;2023-01-19T03:03:46;2.60;;;0.50;;
30233;SDS011;17046;52.074;4.748;2023-01-19T03:06:51;4.73;;;0.50;;
30233;SDS011;17046;52.074;4.748;2023-01-19T03:09:34;4.00;;;0.53;;
30233;SDS011;17046;52.074;4.748;2023-01-19T03:12:09;2.73;;;0.40;;
30233;SDS011;17046;52.074;4.748;2023-01-19T03:14:50;2.07;;;0.47;;
30233;SDS011;17046;52.074;4.748;2023-01-19T03:17:23;2.53;;;0.60;;
30233;SDS011;17046;52.074;4.748;2023-01-19T03:19:50;4.93;;;1.30;;
30233;SDS011;17046;52.074;4.748;2023-01-19T03:22:19;2.17;;;0.50;;
30233;SDS011;17046;52.074;4.748;2023-01-19T03:24:48;5.53;;;0.90;;
30233;SDS011;17046;52.074;4.748;2023-01-19T03:27:20;6.20;;;0.80;;
30233;SDS011;17046;52.074;4.748;2023-01-19T03:29:53;5.13;;;0.83;;
30233;SDS011;17046;52.074;4.748;2023-01-19T03:32:24;4.60;;;0.83;;
30233;SDS011;17046;52.074;4.748;2023-01-19T03:34:55;6.40;;;1.17;;
30233;SDS011;17046;52.074;4.748;2023-01-19T03:37:24;8.47;;;0.80;;
30233;SDS011;17046;52.074;4.748;2023-01-19T03:39:52;8.27;;;1.10;;
30233;SDS011;17046;52.074;4.748;2023-01-19T03:42:17;6.37;;;0.87;;
30233;SDS011;17046;52.074;4.748;2023-01-19T03:44:44;5.23;;;0.90;;
30233;SDS011;17046;52.074;4.748;2023-01-19T03:47:14;5.33;;;0.93;;
30233;SDS011;17046;52.074;4.748;2023-01-19T03:49:41;9.20;;;1.03;;
30233;SDS011;17046;52.074;4.748;2023-01-19T03:52:09;7.67;;;0.80;;
30233;SDS011;17046;52.074;4.748;2023-01-19T03:54:34;2.97;;;0.77;;
30233;SDS011;17046;52.074;4.748;2023-01-19T03:57:00;4.53;;;1.10;;
30233;SDS011;17046;52.074;4.748;2023-01-19T03:59:26;4.17;;;1.30;;
30233;SDS011;17046;52.074;4.748;2023-01-19T04:01:51;9.23;;;0.83;;
30233;SDS011;17046;52.074;4.748;2023-01-19T04:04:17;4.63;;;0.77;;
30233;SDS011;17046;52.074;4.748;2023-01-19T04:06:42;10.37;;;1.13;;
30233;SDS011;17046;52.074;4.748;2023-01-19T04:09:08;4.73;;;1.20;;
30233;SDS011;17046;52.074;4.748;2023-01-19T04:11:33;9.37;;;1.20;;
30233;SDS011;17046;52.074;4.748;2023-01-19T04:13:59;7.67;;;1.13;;
30233;SDS011;17046;52.074;4.748;2023-01-19T04:16:25;9.30;;;1.67;;
30233;SDS011;17046;52.074;4.748;2023-01-19T04:18:51;5.50;;;1.17;;
30233;SDS011;17046;52.074;4.748;2023-01-19T04:21:17;9.33;;;1.47;;
30233;SDS011;17046;52.074;4.748;2023-01-19T04:23:44;14.47;;;1.53;;
30233;SDS011;17046;52.074;4.748;2023-01-19T04:26:10;9.73;;;1.10;;
30233;SDS011;17046;52.074;4.748;2023-01-19T04:28:36;9.57;;;1.07;;
30233;SDS011;17046;52.074;4.748;2023-01-19T04:31:02;8.27;;;1.40;;
30233;SDS011;17046;52.074;4.748;2023-01-19T04:33:29;16.00;;;1.93;;
30233;SDS011;17046;52.074;4.748;2023-01-19T04:35:54;15.37;;;2.13;;
30233;SDS011;17046;52.074;4.748;2023-01-19T04:38:20;10.97;;;1.80;;
30233;SDS011;17046;52.074;4.748;2023-01-19T04:40:48;17.67;;;1.67;;
30233;SDS011;17046;52.074;4.748;2023-01-19T04:43:14;20.77;;;2.93;;
30233;SDS011;17046;52.074;4.748;2023-01-19T04:45:40;14.10;;;2.40;;
30233;SDS011;17046;52.074;4.748;2023-01-19T04:48:08;10.80;;;2.17;;
30233;SDS011;17046;52.074;4.748;2023-01-19T04:50:34;18.57;;;2.83;;
30233;SDS011;17046;52.074;4.748;2023-01-19T04:53:00;24.37;;;3.03;;
30233;SDS011;17046;52.074;4.748;2023-01-19T04:55:26;17.40;;;2.40;;
30233;SDS011;17046;52.074;4.748;2023-01-19T04:57:51;17.33;;;2.40;;
30233;SDS011;17046;52.074;4.748;2023-01-19T05:00:18;15.07;;;2.17;;
30233;SDS011;17046;52.074;4.748;2023-01-19T05:02:44;23.43;;;3.00;;
30233;SDS011;17046;52.074;4.748;2023-01-19T05:05:10;17.67;;;2.63;;
30233;SDS011;17046;52.074;4.748;2023-01-19T05:07:36;17.07;;;2.53;;
30233;SDS011;17046;52.074;4.748;2023-01-19T05:10:02;19.13;;;2.13;;
30233;SDS011;17046;52.074;4.748;2023-01-19T05:12:28;21.57;;;3.17;;
30233;SDS011;17046;52.074;4.748;2023-01-19T05:14:53;14.40;;;2.73;;
30233;SDS011;17046;52.074;4.748;2023-01-19T05:17:19;27.57;;;2.80;;
30233;SDS011;17046;52.074;4.748;2023-01-19T05:19:45;25.07;;;2.70;;
30233;SDS011;17046;52.074;4.748;2023-01-19T05:22:11;18.57;;;1.90;;
30233;SDS011;17046;52.074;4.748;2023-01-19T05:24:37;15.93;;;2.43;;
30233;SDS011;17046;52.074;4.748;2023-01-19T05:27:03;19.63;;;2.40;;
30233;SDS011;17046;52.074;4.748;2023-01-19T05:29:28;17.37;;;2.70;;
30233;SDS011;17046;52.074;4.748;2023-01-19T05:31:54;23.30;;;2.90;;
30233;SDS011;17046;52.074;4.748;2023-01-19T05:34:20;23.53;;;2.93;;
30233;SDS011;17046;52.074;4.748;2023-01-19T05:36:45;13.57;;;2.50;;
30233;SDS011;17046;52.074;4.748;2023-01-19T05:39:11;14.17;;;2.27;;
30233;SDS011;17046;52.074;4.748;2023-01-19T05:41:36;22.10;;;2.57;;
30233;SDS011;17046;52.074;4.748;2023-01-19T05:44:02;18.27;;;2.10;;
30233;SDS011;17046;52.074;4.748;2023-01-19T05:46:28;17.33;;;2.80;;
30233;SDS011;17046;52.074;4.748;2023-01-19T05:48:53;20.90;;;2.50;;
30233;SDS011;17046;52.074;4.748;2023-01-19T05:51:19;15.70;;;2.73;;
30233;SDS011;17046;52.074;4.748;2023-01-19T05:53:44;16.70;;;2.43;;
30233;SDS011;17046;52.074;4.748;2023-01-19T05:56:10;19.00;;;3.00;;
30233;SDS011;17046;52.074;4.748;2023-01-19T05:58:36;17.40;;;2.57;;
30233;SDS011;17046;52.074;4.748;2023-01-19T06:01:07;22.07;;;2.70;;
30233;SDS011;17046;52.074;4.748;2023-01-19T06:03:34;18.93;;;2.93;;
30233;SDS011;17046;52.074;4.748;2023-01-19T06:06:01;26.17;;;2.80;;
30233;SDS011;17046;52.074;4.748;2023-01-19T06:08:27;19.77;;;2.63;;
30233;SDS011;17046;52.074;4.748;2023-01-19T06:10:53;20.40;;;2.83;;
30233;SDS011;17046;52.074;4.748;2023-01-19T06:13:19;23.87;;;2.27;;
30233;SDS011;17046;52.074;4.748;2023-01-19T06:15:45;18.00;;;2.83;;
30233;SDS011;17046;52.074;4.748;2023-01-19T06:18:11;11.57;;;2.50;;
30233;SDS011;17046;52.074;4.748;2023-01-19T06:20:38;23.13;;;2.60;;
30233;SDS011;17046;52.074;4.748;2023-01-19T06:23:03;16.50;;;2.63;;
30233;SDS011;17046;52.074;4.748;2023-01-19T06:25:29;12.90;;;2.07;;
30233;SDS011;17046;52.074;4.748;2023-01-19T06:27:54;20.07;;;3.10;;
30233;SDS011;17046;52.074;4.748;2023-01-19T06:30:20;19.10;;;2.57;;
30233;SDS011;17046;52.074;4.748;2023-01-19T06:32:45;19.20;;;3.63;;
30233;SDS011;17046;52.074;4.748;2023-01-19T06:35:11;23.10;;;3.70;;
30233;SDS011;17046;52.074;4.748;2023-01-19T06:37:38;25.30;;;3.37;;
30233;SDS011;17046;52.074;4.748;2023-01-19T06:40:04;22.23;;;3.10;;
30233;SDS011;17046;52.074;4.748;2023-01-19T06:42:31;18.73;;;2.40;;
30233;SDS011;17046;52.074;4.748;2023-01-19T06:44:56;17.97;;;2.17;;
30233;SDS011;17046;52.074;4.748;2023-01-19T06:47:22;15.47;;;2.63;;
30233;SDS011;17046;52.074;4.748;2023-01-19T06:49:47;15.57;;;2.27;;
30233;SDS011;17046;52.074;4.748;2023-01-19T06:52:13;20.37;;;2.60;;
30233;SDS011;17046;52.074;4.748;2023-01-19T06:54:43;17.13;;;2.43;;
30233;SDS011;17046;52.074;4.748;2023-01-19T06:57:10;14.23;;;1.97;;
30233;SDS011;17046;52.074;4.748;2023-01-19T06:59:36;15.30;;;2.57;;
30233;SDS011;17046;52.074;4.748;2023-01-19T07:02:04;13.70;;;2.00;;
30233;SDS011;17046;52.074;4.748;2023-01-19T07:04:30;13.33;;;2.03;;
30233;SDS011;17046;52.074;4.748;2023-01-19T07:06:56;18.87;;;2.23;;
30233;SDS011;17046;52.074;4.748;2023-01-19T07:09:21;11.63;;;2.10;;
30233;SDS011;17046;52.074;4.748;2023-01-19T07:11:49;16.30;;;2.00;;
30233;SDS011;17046;52.074;4.748;2023-01-19T07:14:15;15.87;;;2.30;;
30233;SDS011;17046;52.074;4.748;2023-01-19T07:16:41;13.97;;;1.90;;
30233;SDS011;17046;52.074;4.748;2023-01-19T07:19:06;10.93;;;1.70;;
30233;SDS011;17046;52.074;4.748;2023-01-19T07:21:34;12.53;;;2.13;;
30233;SDS011;17046;52.074;4.748;2023-01-19T07:24:00;11.50;;;1.67;;
30233;SDS011;17046;52.074;4.748;2023-01-19T07:26:26;12.23;;;1.60;;
30233;SDS011;17046;52.074;4.748;2023-01-19T07:28:51;12.13;;;1.60;;
30233;SDS011;17046;52.074;4.748;2023-01-19T07:31:17;15.63;;;2.20;;
30233;SDS011;17046;52.074;4.748;2023-01-19T07:33:43;10.97;;;1.63;;
30233;SDS011;17046;52.074;4.748;2023-01-19T07:36:09;11.27;;;2.20;;
30233;SDS011;17046;52.074;4.748;2023-01-19T07:38:35;11.37;;;1.73;;
30233;SDS011;17046;52.074;4.748;2023-01-19T07:41:01;13.27;;;2.00;;
30233;SDS011;17046;52.074;4.748;2023-01-19T07:43:30;10.03;;;1.90;;
30233;SDS011;17046;52.074;4.748;2023-01-19T07:46:00;19.50;;;1.73;;
30233;SDS011;17046;52.074;4.748;2023-01-19T07:48:27;10.47;;;1.90;;
30233;SDS011;17046;52.074;4.748;2023-01-19T07:50:53;20.30;;;3.53;;
30233;SDS011;17046;52.074;4.748;2023-01-19T07:53:32;12.63;;;2.17;;
30233;SDS011;17046;52.074;4.748;2023-01-19T07:55:58;13.43;;;2.37;;
30233;SDS011;17046;52.074;4.748;2023-01-19T07:58:24;14.67;;;2.03;;
30233;SDS011;17046;52.074;4.748;2023-01-19T08:00:50;15.37;;;2.10;;
30233;SDS011;17046;52.074;4.748;2023-01-19T08:03:16;10.37;;;1.47;;
30233;SDS011;17046;52.074;4.748;2023-01-19T08:05:42;11.27;;;1.83;;
30233;SDS011;17046;52.074;4.748;2023-01-19T08:08:08;14.87;;;2.07;;
30233;SDS011;17046;52.074;4.748;2023-01-19T08:10:35;12.30;;;1.83;;
30233;SDS011;17046;52.074;4.748;2023-01-19T08:13:01;13.10;;;2.00;;
30233;SDS011;17046;52.074;4.748;2023-01-19T08:15:26;11.43;;;1.60;;
30233;SDS011;17046;52.074;4.748;2023-01-19T08:17:56;9.30;;;1.60;;
30233;SDS011;17046;52.074;4.748;2023-01-19T08:20:26;7.47;;;1.50;;
30233;SDS011;17046;52.074;4.748;2023-01-19T08:22:53;8.93;;;1.27;;
30233;SDS011;17046;52.074;4.748;2023-01-19T08:25:47;7.90;;;1.47;;
30233;SDS011;17046;52.074;4.748;2023-01-19T08:28:13;12.73;;;1.33;;
30233;SDS011;17046;52.074;4.748;2023-01-19T08:30:40;15.97;;;2.73;;
30233;SDS011;17046;52.074;4.748;2023-01-19T08:33:08;9.53;;;3.93;;
30233;SDS011;17046;52.074;4.748;2023-01-19T08:35:38;9.60;;;3.50;;
30233;SDS011;17046;52.074;4.748;2023-01-19T08:38:05;10.00;;;3.60;;
30233;SDS011;17046;52.074;4.748;2023-01-19T08:40:33;9.27;;;3.07;;
30233;SDS011;17046;52.074;4.748;2023-01-19T08:43:01;11.83;;;2.50;;
30233;SDS011;17046;52.074;4.748;2023-01-19T08:45:30;9.20;;;1.93;;
30233;SDS011;17046;52.074;4.748;2023-01-19T08:47:56;6.97;;;1.40;;
30233;SDS011;17046;52.074;4.748;2023-01-19T08:50:23;7.75;;;2.33;;
30233;SDS011;17046;52.074;4.748;2023-01-19T08:52:50;9.50;;;1.73;;
30233;SDS011;17046;52.074;4.748;2023-01-19T08:55:16;7.50;;;1.90;;
30233;SDS011;17046;52.074;4.748;2023-01-19T08:57:41;11.03;;;1.90;;
30233;SDS011;17046;52.074;4.748;2023-01-19T09:00:07;12.27;;;2.17;;
30233;SDS011;17046;52.074;4.748;2023-01-19T09:02:35;10.87;;;1.57;;
30233;SDS011;17046;52.074;4.748;2023-01-19T09:05:01;10.77;;;1.77;;
30233;SDS011;17046;52.074;4.748;2023-01-19T09:07:28;14.33;;;2.10;;
30233;SDS011;17046;52.074;4.748;2023-01-19T09:09:54;12.37;;;2.57;;
30233;SDS011;17046;52.074;4.748;2023-01-19T09:12:20;15.47;;;2.97;;
30233;SDS011;17046;52.074;4.748;2023-01-19T09:14:45;15.87;;;2.77;;
30233;SDS011;17046;52.074;4.748;2023-01-19T09:17:11;18.97;;;2.43;;
30233;SDS011;17046;52.074;4.748;2023-01-19T09:19:38;12.87;;;2.13;;
30233;SDS011;17046;52.074;4.748;2023-01-19T09:22:04;13.67;;;2.13;;
30233;SDS011;17046;52.074;4.748;2023-01-19T09:24:30;8.77;;;1.97;;
30233;SDS011;17046;52.074;4.748;2023-01-19T09:26:56;12.23;;;2.13;;
30233;SDS011;17046;52.074;4.748;2023-01-19T09:29:21;15.27;;;2.53;;
30233;SDS011;17046;52.074;4.748;2023-01-19T09:31:47;10.33;;;2.47;;
30233;SDS011;17046;52.074;4.748;2023-01-19T09:34:12;13.47;;;2.37;;
30233;SDS011;17046;52.074;4.748;2023-01-19T09:36:38;10.60;;;2.47;;
30233;SDS011;17046;52.074;4.748;2023-01-19T09:39:04;10.97;;;2.50;;
30233;SDS011;17046;52.074;4.748;2023-01-19T09:41:29;9.60;;;2.30;;
30233;SDS011;17046;52.074;4.748;2023-01-19T09:43:59;10.37;;;2.00;;
30233;SDS011;17046;52.074;4.748;2023-01-19T09:46:32;9.63;;;1.77;;
30233;SDS011;17046;52.074;4.748;2023-01-19T09:49:04;8.13;;;1.73;;
30233;SDS011;17046;52.074;4.748;2023-01-19T09:51:46;6.13;;;1.23;;
30233;SDS011;17046;52.074;4.748;2023-01-19T09:54:15;9.13;;;1.87;;
30233;SDS011;17046;52.074;4.748;2023-01-19T09:56:43;6.13;;;2.10;;
30233;SDS011;17046;52.074;4.748;2023-01-19T09:59:23;8.33;;;1.30;;
30233;SDS011;17046;52.074;4.748;2023-01-19T10:01:56;11.90;;;1.20;;
30233;SDS011;17046;52.074;4.748;2023-01-19T10:07:06;8.90;;;1.43;;
30233;SDS011;17046;52.074;4.748;2023-01-19T10:09:43;5.87;;;1.03;;
30233;SDS011;17046;52.074;4.748;2023-01-19T10:12:32;5.23;;;1.57;;
30233;SDS011;17046;52.074;4.748;2023-01-19T10:21:00;2.20;;;0.80;;
30233;SDS011;17046;52.074;4.748;2023-01-19T10:26:03;8.60;;;1.60;;
30233;SDS011;17046;52.074;4.748;2023-01-19T10:28:37;12.23;;;1.87;;
30233;SDS011;17046;52.074;4.748;2023-01-19T10:31:04;10.93;;;1.90;;
30233;SDS011;17046;52.074;4.748;2023-01-19T10:33:32;9.07;;;1.73;;
30233;SDS011;17046;52.074;4.748;2023-01-19T10:36:02;5.20;;;1.00;;
30233;SDS011;17046;52.074;4.748;2023-01-19T10:38:40;8.07;;;1.33;;
30233;SDS011;17046;52.074;4.748;2023-01-19T10:41:09;3.80;;;1.17;;
30233;SDS011;17046;52.074;4.748;2023-01-19T10:46:14;6.10;;;0.67;;
30233;SDS011;17046;52.074;4.748;2023-01-19T10:48:44;6.97;;;1.13;;
30233;SDS011;17046;52.074;4.748;2023-01-19T10:51:13;5.03;;;1.17;;
30233;SDS011;17046;52.074;4.748;2023-01-19T10:53:39;4.50;;;0.90;;
30233;SDS011;17046;52.074;4.748;2023-01-19T10:56:22;4.13;;;0.93;;
30233;SDS011;17046;52.074;4.748;2023-01-19T10:58:49;4.43;;;1.10;;
30233;SDS011;17046;52.074;4.748;2023-01-19T11:01:18;4.07;;;0.80;;
30233;SDS011;17046;52.074;4.748;2023-01-19T11:03:47;6.47;;;1.30;;
30233;SDS011;17046;52.074;4.748;2023-01-19T11:08:41;4.53;;;1.10;;
30233;SDS011;17046;52.074;4.748;2023-01-19T11:11:07;4.13;;;0.93;;
30233;SDS011;17046;52.074;4.748;2023-01-19T11:13:34;7.03;;;0.97;;
30233;SDS011;17046;52.074;4.748;2023-01-19T11:16:04;6.23;;;1.07;;
30233;SDS011;17046;52.074;4.748;2023-01-19T11:18:49;3.37;;;1.00;;
30233;SDS011;17046;52.074;4.748;2023-01-19T11:21:16;7.77;;;0.93;;
30233;SDS011;17046;52.074;4.748;2023-01-19T11:23:50;3.50;;;1.10;;
30233;SDS011;17046;52.074;4.748;2023-01-19T11:26:24;5.07;;;0.80;;
30233;SDS011;17046;52.074;4.748;2023-01-19T11:28:53;8.47;;;1.00;;
30233;SDS011;17046;52.074;4.748;2023-01-19T11:33:53;3.77;;;0.77;;
30233;SDS011;17046;52.074;4.748;2023-01-19T11:36:27;4.83;;;0.73;;
30233;SDS011;17046;52.074;4.748;2023-01-19T11:38:56;3.50;;;0.73;;
30233;SDS011;17046;52.074;4.748;2023-01-19T11:41:33;2.90;;;0.93;;
30233;SDS011;17046;52.074;4.748;2023-01-19T11:44:04;4.80;;;1.20;;
30233;SDS011;17046;52.074;4.748;2023-01-19T11:46:43;8.53;;;1.13;;
30233;SDS011;17046;52.074;4.748;2023-01-19T11:51:57;11.63;;;1.20;;
30233;SDS011;17046;52.074;4.748;2023-01-19T11:54:30;5.33;;;0.93;;
30233;SDS011;17046;52.074;4.748;2023-01-19T11:57:00;7.50;;;1.13;;
30233;SDS011;17046;52.074;4.748;2023-01-19T11:59:35;2.60;;;0.70;;
30233;SDS011;17046;52.074;4.748;2023-01-19T12:02:01;3.37;;;0.67;;
30233;SDS011;17046;52.074;4.748;2023-01-19T12:04:37;4.97;;;1.00;;
30233;SDS011;17046;52.074;4.748;2023-01-19T12:07:06;5.17;;;0.70;;
30233;SDS011;17046;52.074;4.748;2023-01-19T12:09:44;3.80;;;1.00;;
30233;SDS011;17046;52.074;4.748;2023-01-19T12:12:13;8.43;;;1.90;;
30233;SDS011;17046;52.074;4.748;2023-01-19T12:17:32;4.00;;;0.80;;
30233;SDS011;17046;52.074;4.748;2023-01-19T12:22:54;4.20;;;0.67;;
30233;SDS011;17046;52.074;4.748;2023-01-19T12:25:40;3.97;;;0.80;;
30233;SDS011;17046;52.074;4.748;2023-01-19T12:28:38;3.77;;;1.00;;
30233;SDS011;17046;52.074;4.748;2023-01-19T12:31:05;3.57;;;0.70;;
30233;SDS011;17046;52.074;4.748;2023-01-19T12:33:33;5.63;;;0.87;;
30233;SDS011;17046;52.074;4.748;2023-01-19T12:36:04;5.00;;;0.77;;
30233;SDS011;17046;52.074;4.748;2023-01-19T12:39:17;6.03;;;0.97;;
30233;SDS011;17046;52.074;4.748;2023-01-19T12:41:44;5.77;;;0.70;;
30233;SDS011;17046;52.074;4.748;2023-01-19T12:49:17;2.53;;;0.87;;
30233;SDS011;17046;52.074;4.748;2023-01-19T12:51:53;4.23;;;1.07;;
30233;SDS011;17046;52.074;4.748;2023-01-19T12:54:35;4.33;;;1.00;;
30233;SDS011;17046;52.074;4.748;2023-01-19T12:57:08;3.77;;;0.83;;
30233;SDS011;17046;52.074;4.748;2023-01-19T12:59:55;5.70;;;0.93;;
30233;SDS011;17046;52.074;4.748;2023-01-19T13:13:22;9.33;;;1.20;;
30233;SDS011;17046;52.074;4.748;2023-01-19T13:18:45;4.07;;;0.93;;
30233;SDS011;17046;52.074;4.748;2023-01-19T13:24:01;5.63;;;1.30;;
30233;SDS011;17046;52.074;4.748;2023-01-19T13:26:32;4.20;;;0.83;;
30233;SDS011;17046;52.074;4.748;2023-01-19T13:29:19;2.10;;;1.10;;
30233;SDS011;17046;52.074;4.748;2023-01-19T13:31:54;3.13;;;1.13;;
30233;SDS011;17046;52.074;4.748;2023-01-19T13:34:27;4.30;;;1.17;;
30233;SDS011;17046;52.074;4.748;2023-01-19T13:37:04;5.33;;;1.00;;
30233;SDS011;17046;52.074;4.748;2023-01-19T13:39:35;4.03;;;1.27;;
30233;SDS011;17046;52.074;4.748;2023-01-19T13:42:05;5.40;;;1.00;;
30233;SDS011;17046;52.074;4.748;2023-01-19T13:44:41;4.30;;;0.90;;
30233;SDS011;17046;52.074;4.748;2023-01-19T13:50:17;3.87;;;0.80;;
30233;SDS011;17046;52.074;4.748;2023-01-19T13:52:47;3.80;;;0.60;;
30233;SDS011;17046;52.074;4.748;2023-01-19T13:55:15;4.80;;;0.67;;
30233;SDS011;17046;52.074;4.748;2023-01-19T13:57:42;3.90;;;0.73;;
30233;SDS011;17046;52.074;4.748;2023-01-19T14:02:41;5.17;;;0.80;;
30233;SDS011;17046;52.074;4.748;2023-01-19T14:05:34;2.27;;;0.70;;
30233;SDS011;17046;52.074;4.748;2023-01-19T14:10:30;7.47;;;1.20;;
30233;SDS011;17046;52.074;4.748;2023-01-19T14:12:57;5.47;;;1.00;;
30233;SDS011;17046;52.074;4.748;2023-01-19T14:15:24;3.03;;;0.80;;
30233;SDS011;17046;52.074;4.748;2023-01-19T14:18:17;1.80;;;0.70;;
30233;SDS011;17046;52.074;4.748;2023-01-19T14:26:02;4.20;;;0.90;;
30233;SDS011;17046;52.074;4.748;2023-01-19T14:31:24;5.10;;;0.80;;
30233;SDS011;17046;52.074;4.748;2023-01-19T14:33:54;4.40;;;1.00;;
30233;SDS011;17046;52.074;4.748;2023-01-19T14:36:26;6.30;;;1.10;;
30233;SDS011;17046;52.074;4.748;2023-01-19T14:39:03;2.70;;;0.80;;
30233;SDS011;17046;52.074;4.748;2023-01-19T14:41:39;6.87;;;1.20;;
30233;SDS011;17046;52.074;4.748;2023-01-19T14:44:17;5.00;;;0.80;;
30233;SDS011;17046;52.074;4.748;2023-01-19T14:46:47;5.93;;;1.07;;
30233;SDS011;17046;52.074;4.748;2023-01-19T14:49:20;2.00;;;1.00;;
30233;SDS011;17046;52.074;4.748;2023-01-19T14:51:53;3.27;;;0.90;;
30233;SDS011;17046;52.074;4.748;2023-01-19T14:54:28;2.97;;;1.07;;
30233;SDS011;17046;52.074;4.748;2023-01-19T14:56:58;3.93;;;0.93;;
30233;SDS011;17046;52.074;4.748;2023-01-19T14:59:24;4.03;;;1.33;;
30233;SDS011;17046;52.074;4.748;2023-01-19T15:01:50;3.37;;;1.13;;
30233;SDS011;17046;52.074;4.748;2023-01-19T15:04:15;4.37;;;1.20;;
30233;SDS011;17046;52.074;4.748;2023-01-19T15:06:41;4.20;;;1.53;;
30233;SDS011;17046;52.074;4.748;2023-01-19T15:09:10;3.67;;;1.07;;
30233;SDS011;17046;52.074;4.748;2023-01-19T15:11:37;2.93;;;0.97;;
30233;SDS011;17046;52.074;4.748;2023-01-19T15:14:03;3.30;;;1.00;;
30233;SDS011;17046;52.074;4.748;2023-01-19T15:16:30;3.00;;;1.03;;
30233;SDS011;17046;52.074;4.748;2023-01-19T15:18:58;5.97;;;1.30;;
30233;SDS011;17046;52.074;4.748;2023-01-19T15:21:23;3.97;;;0.97;;
30233;SDS011;17046;52.074;4.748;2023-01-19T15:23:50;3.23;;;1.07;;
30233;SDS011;17046;52.074;4.748;2023-01-19T15:26:18;2.27;;;0.90;;
30233;SDS011;17046;52.074;4.748;2023-01-19T15:28:45;1.90;;;1.10;;
30233;SDS011;17046;52.074;4.748;2023-01-19T15:31:20;6.77;;;1.27;;
30233;SDS011;17046;52.074;4.748;2023-01-19T15:33:47;8.60;;;1.30;;
30233;SDS011;17046;52.074;4.748;2023-01-19T15:36:17;7.30;;;1.50;;
30233;SDS011;17046;52.074;4.748;2023-01-19T15:38:45;8.07;;;1.57;;
30233;SDS011;17046;52.074;4.748;2023-01-19T15:41:16;6.80;;;2.27;;
30233;SDS011;17046;52.074;4.748;2023-01-19T15:43:47;5.47;;;2.10;;
30233;SDS011;17046;52.074;4.748;2023-01-19T15:46:13;4.37;;;2.13;;
30233;SDS011;17046;52.074;4.748;2023-01-19T15:48:40;3.37;;;1.50;;
30233;SDS011;17046;52.074;4.748;2023-01-19T15:51:10;5.43;;;1.63;;
30233;SDS011;17046;52.074;4.748;2023-01-19T15:53:39;4.30;;;1.30;;
30233;SDS011;17046;52.074;4.748;2023-01-19T15:56:09;5.53;;;1.70;;
30233;SDS011;17046;52.074;4.748;2023-01-19T15:58:40;4.97;;;2.50;;
30233;SDS011;17046;52.074;4.748;2023-01-19T16:01:05;3.77;;;1.60;;
30233;SDS011;17046;52.074;4.748;2023-01-19T16:03:36;8.67;;;2.27;;